sensor_id;sensor_type;location;lat;lon;timestamp;P1;durP1;ratioP1;P2;durP2;ratioP2
62523;SDS011;53689;56.878;60.672;2024-02-26T00:01:37;34.95;;;21.63;;
62523;SDS011;53689;56.878;60.672;2024-02-26T00:04:04;41.15;;;25.17;;
62523;SDS011;53689;56.878;60.672;2024-02-26T00:06:32;25.27;;;16.40;;
62523;SDS011;53689;56.878;60.672;2024-02-26T00:09:00;33.33;;;21.58;;
62523;SDS011;53689;56.878;60.672;2024-02-26T00:11:28;65.07;;;39.58;;
62523;SDS011;53689;56.878;60.672;2024-02-26T00:13:56;62.58;;;36.00;;
62523;SDS011;53689;56.878;60.672;2024-02-26T00:16:24;63.17;;;37.72;;
62523;SDS011;53689;56.878;60.672;2024-02-26T00:18:53;67.35;;;40.00;;
62523;SDS011;53689;56.878;60.672;2024-02-26T00:21:21;56.80;;;34.60;;
62523;SDS011;53689;56.878;60.672;2024-02-26T00:23:49;43.58;;;26.83;;
62523;SDS011;53689;56.878;60.672;2024-02-26T00:26:17;71.68;;;41.53;;
62523;SDS011;53689;56.878;60.672;2024-02-26T00:28:45;38.13;;;23.23;;
62523;SDS011;53689;56.878;60.672;2024-02-26T00:31:13;51.30;;;31.65;;
62523;SDS011;53689;56.878;60.672;2024-02-26T00:33:41;51.70;;;30.48;;
62523;SDS011;53689;56.878;60.672;2024-02-26T00:36:10;57.88;;;35.05;;
62523;SDS011;53689;56.878;60.672;2024-02-26T00:38:38;61.85;;;36.22;;
62523;SDS011;53689;56.878;60.672;2024-02-26T00:41:06;74.00;;;43.97;;
62523;SDS011;53689;56.878;60.672;2024-02-26T00:43:34;52.72;;;32.65;;
62523;SDS011;53689;56.878;60.672;2024-02-26T00:46:02;49.40;;;31.63;;
62523;SDS011;53689;56.878;60.672;2024-02-26T00:48:31;49.22;;;30.08;;
62523;SDS011;53689;56.878;60.672;2024-02-26T00:50:59;66.25;;;41.33;;
62523;SDS011;53689;56.878;60.672;2024-02-26T00:53:28;47.20;;;29.85;;
62523;SDS011;53689;56.878;60.672;2024-02-26T00:55:56;52.33;;;31.98;;
62523;SDS011;53689;56.878;60.672;2024-02-26T00:58:24;48.17;;;28.85;;
62523;SDS011;53689;56.878;60.672;2024-02-26T01:00:52;43.75;;;27.73;;
62523;SDS011;53689;56.878;60.672;2024-02-26T01:03:19;43.28;;;28.15;;
62523;SDS011;53689;56.878;60.672;2024-02-26T01:05:47;49.08;;;30.58;;
62523;SDS011;53689;56.878;60.672;2024-02-26T01:08:16;51.00;;;32.85;;
62523;SDS011;53689;56.878;60.672;2024-02-26T01:10:45;45.30;;;26.75;;
62523;SDS011;53689;56.878;60.672;2024-02-26T01:13:13;52.45;;;28.20;;
62523;SDS011;53689;56.878;60.672;2024-02-26T01:15:41;42.25;;;25.42;;
62523;SDS011;53689;56.878;60.672;2024-02-26T01:18:09;42.88;;;26.92;;
62523;SDS011;53689;56.878;60.672;2024-02-26T01:20:38;40.10;;;24.83;;
62523;SDS011;53689;56.878;60.672;2024-02-26T01:23:06;42.97;;;26.25;;
62523;SDS011;53689;56.878;60.672;2024-02-26T01:25:34;38.63;;;24.30;;
62523;SDS011;53689;56.878;60.672;2024-02-26T01:28:03;36.15;;;22.35;;
62523;SDS011;53689;56.878;60.672;2024-02-26T01:30:32;40.20;;;25.10;;
62523;SDS011;53689;56.878;60.672;2024-02-26T01:32:59;33.00;;;20.52;;
62523;SDS011;53689;56.878;60.672;2024-02-26T01:35:28;30.80;;;19.42;;
62523;SDS011;53689;56.878;60.672;2024-02-26T01:37:56;29.52;;;18.88;;
62523;SDS011;53689;56.878;60.672;2024-02-26T01:40:25;25.85;;;17.90;;
62523;SDS011;53689;56.878;60.672;2024-02-26T01:42:54;32.08;;;20.15;;
62523;SDS011;53689;56.878;60.672;2024-02-26T01:45:23;28.80;;;18.88;;
62523;SDS011;53689;56.878;60.672;2024-02-26T01:50:20;28.80;;;18.27;;
62523;SDS011;53689;56.878;60.672;2024-02-26T01:52:49;32.53;;;20.70;;
62523;SDS011;53689;56.878;60.672;2024-02-26T01:57:46;25.10;;;16.40;;
62523;SDS011;53689;56.878;60.672;2024-02-26T02:00:16;24.48;;;16.10;;
62523;SDS011;53689;56.878;60.672;2024-02-26T02:02:47;25.23;;;16.42;;
62523;SDS011;53689;56.878;60.672;2024-02-26T02:05:16;27.85;;;16.52;;
62523;SDS011;53689;56.878;60.672;2024-02-26T02:07:44;30.73;;;17.92;;
62523;SDS011;53689;56.878;60.672;2024-02-26T02:10:12;32.00;;;18.90;;
62523;SDS011;53689;56.878;60.672;2024-02-26T02:12:40;24.73;;;16.33;;
62523;SDS011;53689;56.878;60.672;2024-02-26T02:15:08;29.10;;;17.63;;
62523;SDS011;53689;56.878;60.672;2024-02-26T02:17:36;22.05;;;15.52;;
62523;SDS011;53689;56.878;60.672;2024-02-26T02:20:09;28.35;;;17.27;;
62523;SDS011;53689;56.878;60.672;2024-02-26T02:22:43;44.55;;;27.63;;
62523;SDS011;53689;56.878;60.672;2024-02-26T02:25:11;22.40;;;14.70;;
62523;SDS011;53689;56.878;60.672;2024-02-26T02:27:39;21.73;;;14.40;;
62523;SDS011;53689;56.878;60.672;2024-02-26T02:30:08;25.20;;;15.38;;
62523;SDS011;53689;56.878;60.672;2024-02-26T02:32:38;19.05;;;12.32;;
62523;SDS011;53689;56.878;60.672;2024-02-26T02:35:07;20.65;;;13.80;;
62523;SDS011;53689;56.878;60.672;2024-02-26T02:37:36;19.23;;;12.02;;
62523;SDS011;53689;56.878;60.672;2024-02-26T02:40:06;18.88;;;11.10;;
62523;SDS011;53689;56.878;60.672;2024-02-26T02:42:35;24.30;;;13.60;;
62523;SDS011;53689;56.878;60.672;2024-02-26T02:45:03;19.88;;;12.18;;
62523;SDS011;53689;56.878;60.672;2024-02-26T02:47:32;20.75;;;12.35;;
62523;SDS011;53689;56.878;60.672;2024-02-26T02:50:03;22.88;;;13.10;;
62523;SDS011;53689;56.878;60.672;2024-02-26T02:52:32;18.67;;;11.18;;
62523;SDS011;53689;56.878;60.672;2024-02-26T02:55:00;19.33;;;11.50;;
62523;SDS011;53689;56.878;60.672;2024-02-26T02:57:30;20.13;;;12.23;;
62523;SDS011;53689;56.878;60.672;2024-02-26T02:59:59;19.23;;;11.88;;
62523;SDS011;53689;56.878;60.672;2024-02-26T03:02:27;18.58;;;11.82;;
62523;SDS011;53689;56.878;60.672;2024-02-26T03:04:54;16.90;;;10.38;;
62523;SDS011;53689;56.878;60.672;2024-02-26T03:07:22;16.55;;;10.80;;
62523;SDS011;53689;56.878;60.672;2024-02-26T03:09:50;16.15;;;10.60;;
62523;SDS011;53689;56.878;60.672;2024-02-26T03:12:18;16.63;;;10.73;;
62523;SDS011;53689;56.878;60.672;2024-02-26T03:14:48;20.02;;;12.25;;
62523;SDS011;53689;56.878;60.672;2024-02-26T03:17:15;17.38;;;11.40;;
62523;SDS011;53689;56.878;60.672;2024-02-26T03:19:43;18.35;;;12.43;;
62523;SDS011;53689;56.878;60.672;2024-02-26T03:22:11;21.35;;;12.75;;
62523;SDS011;53689;56.878;60.672;2024-02-26T03:24:39;18.92;;;12.60;;
62523;SDS011;53689;56.878;60.672;2024-02-26T03:27:07;17.75;;;11.60;;
62523;SDS011;53689;56.878;60.672;2024-02-26T03:29:35;19.58;;;12.02;;
62523;SDS011;53689;56.878;60.672;2024-02-26T03:32:05;18.83;;;11.82;;
62523;SDS011;53689;56.878;60.672;2024-02-26T03:34:35;18.98;;;11.55;;
62523;SDS011;53689;56.878;60.672;2024-02-26T03:37:03;16.80;;;11.32;;
62523;SDS011;53689;56.878;60.672;2024-02-26T03:39:31;22.65;;;11.02;;
62523;SDS011;53689;56.878;60.672;2024-02-26T03:41:59;17.48;;;12.00;;
62523;SDS011;53689;56.878;60.672;2024-02-26T03:44:27;19.42;;;11.70;;
62523;SDS011;53689;56.878;60.672;2024-02-26T03:46:55;17.38;;;11.88;;
62523;SDS011;53689;56.878;60.672;2024-02-26T03:49:25;18.35;;;11.63;;
62523;SDS011;53689;56.878;60.672;2024-02-26T03:51:53;19.95;;;11.57;;
62523;SDS011;53689;56.878;60.672;2024-02-26T03:54:20;19.15;;;12.27;;
62523;SDS011;53689;56.878;60.672;2024-02-26T03:56:49;17.17;;;11.77;;
62523;SDS011;53689;56.878;60.672;2024-02-26T03:59:17;18.40;;;12.02;;
62523;SDS011;53689;56.878;60.672;2024-02-26T04:01:45;20.20;;;12.10;;
62523;SDS011;53689;56.878;60.672;2024-02-26T04:04:13;20.15;;;12.75;;
62523;SDS011;53689;56.878;60.672;2024-02-26T04:06:45;19.02;;;11.65;;
62523;SDS011;53689;56.878;60.672;2024-02-26T04:09:14;16.95;;;10.80;;
62523;SDS011;53689;56.878;60.672;2024-02-26T04:11:42;16.52;;;11.27;;
62523;SDS011;53689;56.878;60.672;2024-02-26T04:14:10;20.75;;;11.43;;
62523;SDS011;53689;56.878;60.672;2024-02-26T04:16:38;18.85;;;11.90;;
62523;SDS011;53689;56.878;60.672;2024-02-26T04:19:06;17.92;;;11.38;;
62523;SDS011;53689;56.878;60.672;2024-02-26T04:21:34;19.42;;;12.55;;
62523;SDS011;53689;56.878;60.672;2024-02-26T04:24:04;22.13;;;12.00;;
62523;SDS011;53689;56.878;60.672;2024-02-26T04:26:32;18.75;;;11.80;;
62523;SDS011;53689;56.878;60.672;2024-02-26T04:29:00;18.20;;;11.20;;
62523;SDS011;53689;56.878;60.672;2024-02-26T04:31:28;17.80;;;12.43;;
62523;SDS011;53689;56.878;60.672;2024-02-26T04:33:56;20.92;;;12.55;;
62523;SDS011;53689;56.878;60.672;2024-02-26T04:36:24;21.65;;;14.27;;
62523;SDS011;53689;56.878;60.672;2024-02-26T04:38:52;17.92;;;11.63;;
62523;SDS011;53689;56.878;60.672;2024-02-26T04:41:21;21.98;;;14.65;;
62523;SDS011;53689;56.878;60.672;2024-02-26T04:43:49;20.98;;;12.90;;
62523;SDS011;53689;56.878;60.672;2024-02-26T04:46:17;24.15;;;14.50;;
62523;SDS011;53689;56.878;60.672;2024-02-26T04:48:45;22.23;;;13.77;;
62523;SDS011;53689;56.878;60.672;2024-02-26T04:51:13;23.83;;;14.32;;
62523;SDS011;53689;56.878;60.672;2024-02-26T04:53:41;26.55;;;14.18;;
62523;SDS011;53689;56.878;60.672;2024-02-26T04:56:09;21.63;;;13.75;;
62523;SDS011;53689;56.878;60.672;2024-02-26T04:58:38;28.33;;;15.07;;
62523;SDS011;53689;56.878;60.672;2024-02-26T05:01:06;23.20;;;14.15;;
62523;SDS011;53689;56.878;60.672;2024-02-26T05:03:34;23.70;;;14.02;;
62523;SDS011;53689;56.878;60.672;2024-02-26T05:06:03;26.73;;;16.27;;
62523;SDS011;53689;56.878;60.672;2024-02-26T05:08:32;26.33;;;16.67;;
62523;SDS011;53689;56.878;60.672;2024-02-26T05:10:59;26.52;;;15.80;;
62523;SDS011;53689;56.878;60.672;2024-02-26T05:13:27;25.35;;;15.90;;
62523;SDS011;53689;56.878;60.672;2024-02-26T05:15:57;22.20;;;14.63;;
62523;SDS011;53689;56.878;60.672;2024-02-26T05:18:25;19.98;;;13.32;;
62523;SDS011;53689;56.878;60.672;2024-02-26T05:20:52;22.40;;;13.77;;
62523;SDS011;53689;56.878;60.672;2024-02-26T05:23:20;20.45;;;12.80;;
62523;SDS011;53689;56.878;60.672;2024-02-26T05:25:50;20.95;;;12.52;;
62523;SDS011;53689;56.878;60.672;2024-02-26T05:28:18;21.13;;;12.93;;
62523;SDS011;53689;56.878;60.672;2024-02-26T05:30:46;20.08;;;12.25;;
62523;SDS011;53689;56.878;60.672;2024-02-26T05:33:15;21.92;;;12.95;;
62523;SDS011;53689;56.878;60.672;2024-02-26T05:35:45;22.23;;;13.30;;
62523;SDS011;53689;56.878;60.672;2024-02-26T05:38:13;23.42;;;13.98;;
62523;SDS011;53689;56.878;60.672;2024-02-26T05:40:41;27.65;;;14.00;;
62523;SDS011;53689;56.878;60.672;2024-02-26T05:43:09;21.63;;;12.68;;
62523;SDS011;53689;56.878;60.672;2024-02-26T05:45:37;24.85;;;13.90;;
62523;SDS011;53689;56.878;60.672;2024-02-26T05:48:05;25.45;;;14.07;;
62523;SDS011;53689;56.878;60.672;2024-02-26T05:50:35;22.38;;;13.05;;
62523;SDS011;53689;56.878;60.672;2024-02-26T05:53:03;21.92;;;12.52;;
62523;SDS011;53689;56.878;60.672;2024-02-26T05:55:31;24.27;;;15.07;;
62523;SDS011;53689;56.878;60.672;2024-02-26T05:57:59;39.40;;;27.15;;
62523;SDS011;53689;56.878;60.672;2024-02-26T06:00:27;38.88;;;22.77;;
62523;SDS011;53689;56.878;60.672;2024-02-26T06:02:55;36.13;;;21.60;;
62523;SDS011;53689;56.878;60.672;2024-02-26T06:05:23;29.88;;;21.75;;
62523;SDS011;53689;56.878;60.672;2024-02-26T06:07:52;34.15;;;18.20;;
62523;SDS011;53689;56.878;60.672;2024-02-26T06:10:20;94.47;;;66.22;;
62523;SDS011;53689;56.878;60.672;2024-02-26T06:12:48;29.20;;;19.17;;
62523;SDS011;53689;56.878;60.672;2024-02-26T06:15:16;35.38;;;18.98;;
62523;SDS011;53689;56.878;60.672;2024-02-26T06:17:44;31.88;;;17.48;;
62523;SDS011;53689;56.878;60.672;2024-02-26T06:20:12;33.58;;;17.88;;
62523;SDS011;53689;56.878;60.672;2024-02-26T06:22:40;33.15;;;16.95;;
62523;SDS011;53689;56.878;60.672;2024-02-26T06:25:10;26.00;;;16.20;;
62523;SDS011;53689;56.878;60.672;2024-02-26T06:27:38;26.40;;;15.13;;
62523;SDS011;53689;56.878;60.672;2024-02-26T06:30:06;30.95;;;16.10;;
62523;SDS011;53689;56.878;60.672;2024-02-26T06:32:35;25.07;;;15.33;;
62523;SDS011;53689;56.878;60.672;2024-02-26T06:35:03;29.75;;;15.30;;
62523;SDS011;53689;56.878;60.672;2024-02-26T06:37:34;35.50;;;16.23;;
62523;SDS011;53689;56.878;60.672;2024-02-26T06:40:02;28.48;;;16.58;;
62523;SDS011;53689;56.878;60.672;2024-02-26T06:42:32;25.03;;;14.77;;
62523;SDS011;53689;56.878;60.672;2024-02-26T06:45:01;30.95;;;15.38;;
62523;SDS011;53689;56.878;60.672;2024-02-26T06:47:29;32.58;;;16.02;;
62523;SDS011;53689;56.878;60.672;2024-02-26T06:49:57;29.15;;;14.50;;
62523;SDS011;53689;56.878;60.672;2024-02-26T06:52:25;33.20;;;16.83;;
62523;SDS011;53689;56.878;60.672;2024-02-26T06:54:54;35.72;;;18.50;;
62523;SDS011;53689;56.878;60.672;2024-02-26T06:57:21;40.72;;;20.65;;
62523;SDS011;53689;56.878;60.672;2024-02-26T06:59:51;40.50;;;21.38;;
62523;SDS011;53689;56.878;60.672;2024-02-26T07:02:19;46.17;;;21.40;;
62523;SDS011;53689;56.878;60.672;2024-02-26T07:04:47;54.42;;;22.40;;
62523;SDS011;53689;56.878;60.672;2024-02-26T07:07:15;53.75;;;23.23;;
62523;SDS011;53689;56.878;60.672;2024-02-26T07:09:43;52.95;;;21.00;;
62523;SDS011;53689;56.878;60.672;2024-02-26T07:12:11;46.72;;;22.42;;
62523;SDS011;53689;56.878;60.672;2024-02-26T07:14:39;41.95;;;18.50;;
62523;SDS011;53689;56.878;60.672;2024-02-26T07:17:09;48.17;;;20.80;;
62523;SDS011;53689;56.878;60.672;2024-02-26T07:19:37;35.60;;;20.27;;
62523;SDS011;53689;56.878;60.672;2024-02-26T07:22:05;45.67;;;22.48;;
62523;SDS011;53689;56.878;60.672;2024-02-26T07:24:33;47.85;;;21.52;;
62523;SDS011;53689;56.878;60.672;2024-02-26T07:27:01;47.78;;;20.58;;
62523;SDS011;53689;56.878;60.672;2024-02-26T07:29:29;44.10;;;19.00;;
62523;SDS011;53689;56.878;60.672;2024-02-26T07:31:57;50.03;;;23.05;;
62523;SDS011;53689;56.878;60.672;2024-02-26T07:34:26;40.17;;;21.55;;
62523;SDS011;53689;56.878;60.672;2024-02-26T07:36:55;45.60;;;26.73;;
62523;SDS011;53689;56.878;60.672;2024-02-26T07:39:23;42.35;;;20.55;;
62523;SDS011;53689;56.878;60.672;2024-02-26T07:41:51;41.53;;;21.73;;
62523;SDS011;53689;56.878;60.672;2024-02-26T07:44:20;42.63;;;20.88;;
62523;SDS011;53689;56.878;60.672;2024-02-26T07:46:48;45.75;;;21.63;;
62523;SDS011;53689;56.878;60.672;2024-02-26T07:49:16;40.97;;;23.20;;
62523;SDS011;53689;56.878;60.672;2024-02-26T07:51:45;43.15;;;22.00;;
62523;SDS011;53689;56.878;60.672;2024-02-26T07:54:13;39.50;;;21.38;;
62523;SDS011;53689;56.878;60.672;2024-02-26T07:56:41;41.88;;;23.95;;
62523;SDS011;53689;56.878;60.672;2024-02-26T07:59:09;51.30;;;21.90;;
62523;SDS011;53689;56.878;60.672;2024-02-26T08:01:37;41.88;;;24.35;;
62523;SDS011;53689;56.878;60.672;2024-02-26T08:04:04;39.25;;;22.40;;
62523;SDS011;53689;56.878;60.672;2024-02-26T08:06:33;46.55;;;26.23;;
62523;SDS011;53689;56.878;60.672;2024-02-26T08:09:06;44.00;;;25.55;;
62523;SDS011;53689;56.878;60.672;2024-02-26T08:11:34;41.50;;;25.30;;
62523;SDS011;53689;56.878;60.672;2024-02-26T08:14:02;40.95;;;26.17;;
62523;SDS011;53689;56.878;60.672;2024-02-26T08:16:30;44.20;;;23.98;;
62523;SDS011;53689;56.878;60.672;2024-02-26T08:19:01;39.05;;;23.98;;
62523;SDS011;53689;56.878;60.672;2024-02-26T08:21:29;44.28;;;26.73;;
62523;SDS011;53689;56.878;60.672;2024-02-26T08:23:57;51.38;;;27.70;;
62523;SDS011;53689;56.878;60.672;2024-02-26T08:26:26;46.00;;;29.13;;
62523;SDS011;53689;56.878;60.672;2024-02-26T08:28:54;47.97;;;27.80;;
62523;SDS011;53689;56.878;60.672;2024-02-26T08:31:22;43.55;;;26.63;;
62523;SDS011;53689;56.878;60.672;2024-02-26T08:33:50;37.75;;;25.92;;
62523;SDS011;53689;56.878;60.672;2024-02-26T08:36:18;39.60;;;25.33;;
62523;SDS011;53689;56.878;60.672;2024-02-26T08:38:46;40.45;;;24.48;;
62523;SDS011;53689;56.878;60.672;2024-02-26T08:41:14;47.65;;;27.90;;
62523;SDS011;53689;56.878;60.672;2024-02-26T08:43:43;39.55;;;25.67;;
62523;SDS011;53689;56.878;60.672;2024-02-26T08:46:12;38.88;;;25.15;;
62523;SDS011;53689;56.878;60.672;2024-02-26T08:48:40;39.17;;;24.50;;
62523;SDS011;53689;56.878;60.672;2024-02-26T08:51:09;38.90;;;25.25;;
62523;SDS011;53689;56.878;60.672;2024-02-26T08:53:37;35.25;;;23.50;;
62523;SDS011;53689;56.878;60.672;2024-02-26T08:56:09;36.92;;;23.13;;
62523;SDS011;53689;56.878;60.672;2024-02-26T08:58:38;34.90;;;22.45;;
62523;SDS011;53689;56.878;60.672;2024-02-26T09:01:07;36.92;;;23.00;;
62523;SDS011;53689;56.878;60.672;2024-02-26T09:03:35;33.65;;;23.35;;
62523;SDS011;53689;56.878;60.672;2024-02-26T09:06:03;36.10;;;23.30;;
62523;SDS011;53689;56.878;60.672;2024-02-26T09:08:31;35.58;;;22.27;;
62523;SDS011;53689;56.878;60.672;2024-02-26T09:10:59;36.05;;;22.25;;
62523;SDS011;53689;56.878;60.672;2024-02-26T09:13:28;35.28;;;22.15;;
62523;SDS011;53689;56.878;60.672;2024-02-26T09:15:58;33.88;;;20.60;;
62523;SDS011;53689;56.878;60.672;2024-02-26T09:18:28;34.38;;;20.83;;
62523;SDS011;53689;56.878;60.672;2024-02-26T09:20:56;31.75;;;19.13;;
62523;SDS011;53689;56.878;60.672;2024-02-26T09:23:24;31.85;;;19.73;;
62523;SDS011;53689;56.878;60.672;2024-02-26T09:25:52;34.20;;;19.88;;
62523;SDS011;53689;56.878;60.672;2024-02-26T09:28:20;43.03;;;31.95;;
62523;SDS011;53689;56.878;60.672;2024-02-26T09:30:48;34.40;;;23.85;;
62523;SDS011;53689;56.878;60.672;2024-02-26T09:33:17;36.10;;;21.42;;
62523;SDS011;53689;56.878;60.672;2024-02-26T09:35:46;33.15;;;24.00;;
62523;SDS011;53689;56.878;60.672;2024-02-26T09:38:14;34.88;;;24.15;;
62523;SDS011;53689;56.878;60.672;2024-02-26T09:40:42;36.97;;;25.20;;
62523;SDS011;53689;56.878;60.672;2024-02-26T09:43:10;33.85;;;24.08;;
62523;SDS011;53689;56.878;60.672;2024-02-26T09:45:41;30.40;;;22.50;;
62523;SDS011;53689;56.878;60.672;2024-02-26T09:48:10;33.67;;;22.98;;
62523;SDS011;53689;56.878;60.672;2024-02-26T09:50:39;76.68;;;61.78;;
62523;SDS011;53689;56.878;60.672;2024-02-26T09:53:11;55.88;;;43.58;;
62523;SDS011;53689;56.878;60.672;2024-02-26T09:55:39;46.05;;;31.15;;
62523;SDS011;53689;56.878;60.672;2024-02-26T09:58:07;39.25;;;23.35;;
62523;SDS011;53689;56.878;60.672;2024-02-26T10:00:37;36.92;;;24.20;;
62523;SDS011;53689;56.878;60.672;2024-02-26T10:03:06;35.88;;;23.25;;
62523;SDS011;53689;56.878;60.672;2024-02-26T10:05:39;38.30;;;24.05;;
62523;SDS011;53689;56.878;60.672;2024-02-26T10:08:12;33.53;;;21.45;;
62523;SDS011;53689;56.878;60.672;2024-02-26T10:10:42;36.38;;;20.95;;
62523;SDS011;53689;56.878;60.672;2024-02-26T10:13:10;40.40;;;22.50;;
62523;SDS011;53689;56.878;60.672;2024-02-26T10:15:37;32.75;;;22.25;;
62523;SDS011;53689;56.878;60.672;2024-02-26T10:18:06;41.85;;;27.17;;
62523;SDS011;53689;56.878;60.672;2024-02-26T10:20:34;54.75;;;37.03;;
62523;SDS011;53689;56.878;60.672;2024-02-26T10:23:02;46.38;;;30.70;;
62523;SDS011;53689;56.878;60.672;2024-02-26T10:25:31;40.67;;;28.13;;
62523;SDS011;53689;56.878;60.672;2024-02-26T10:27:59;35.10;;;22.13;;
62523;SDS011;53689;56.878;60.672;2024-02-26T10:30:28;37.08;;;22.20;;
62523;SDS011;53689;56.878;60.672;2024-02-26T10:32:55;33.70;;;22.77;;
62523;SDS011;53689;56.878;60.672;2024-02-26T10:35:23;31.40;;;22.10;;
62523;SDS011;53689;56.878;60.672;2024-02-26T10:37:51;30.92;;;22.48;;
62523;SDS011;53689;56.878;60.672;2024-02-26T10:40:19;34.03;;;22.25;;
62523;SDS011;53689;56.878;60.672;2024-02-26T10:42:49;34.67;;;21.20;;
62523;SDS011;53689;56.878;60.672;2024-02-26T10:47:44;31.45;;;20.25;;
62523;SDS011;53689;56.878;60.672;2024-02-26T10:50:13;31.40;;;19.37;;
62523;SDS011;53689;56.878;60.672;2024-02-26T10:52:42;33.08;;;18.42;;
62523;SDS011;53689;56.878;60.672;2024-02-26T10:55:12;35.10;;;19.27;;
62523;SDS011;53689;56.878;60.672;2024-02-26T10:57:42;27.08;;;18.30;;
62523;SDS011;53689;56.878;60.672;2024-02-26T11:00:14;28.88;;;18.73;;
62523;SDS011;53689;56.878;60.672;2024-02-26T11:02:43;33.63;;;19.73;;
62523;SDS011;53689;56.878;60.672;2024-02-26T11:05:12;29.33;;;19.30;;
62523;SDS011;53689;56.878;60.672;2024-02-26T11:07:42;36.38;;;20.65;;
62523;SDS011;53689;56.878;60.672;2024-02-26T11:10:11;33.83;;;18.50;;
62523;SDS011;53689;56.878;60.672;2024-02-26T11:12:38;27.70;;;17.88;;
62523;SDS011;53689;56.878;60.672;2024-02-26T11:15:08;27.48;;;18.02;;
62523;SDS011;53689;56.878;60.672;2024-02-26T11:17:38;26.67;;;17.15;;
62523;SDS011;53689;56.878;60.672;2024-02-26T11:20:09;35.67;;;22.38;;
62523;SDS011;53689;56.878;60.672;2024-02-26T11:22:37;32.13;;;17.58;;
62523;SDS011;53689;56.878;60.672;2024-02-26T11:25:06;33.88;;;17.92;;
62523;SDS011;53689;56.878;60.672;2024-02-26T11:27:35;27.73;;;19.80;;
62523;SDS011;53689;56.878;60.672;2024-02-26T11:30:08;30.95;;;18.27;;
62523;SDS011;53689;56.878;60.672;2024-02-26T11:32:39;34.42;;;18.92;;
62523;SDS011;53689;56.878;60.672;2024-02-26T11:35:07;28.38;;;19.52;;
62523;SDS011;53689;56.878;60.672;2024-02-26T11:37:36;26.90;;;18.25;;
62523;SDS011;53689;56.878;60.672;2024-02-26T11:40:10;26.70;;;18.33;;
62523;SDS011;53689;56.878;60.672;2024-02-26T11:42:43;31.75;;;18.85;;
62523;SDS011;53689;56.878;60.672;2024-02-26T11:48:14;30.45;;;18.27;;
62523;SDS011;53689;56.878;60.672;2024-02-26T11:50:46;30.73;;;18.83;;
62523;SDS011;53689;56.878;60.672;2024-02-26T11:53:21;27.23;;;18.70;;
62523;SDS011;53689;56.878;60.672;2024-02-26T11:59:00;31.55;;;18.30;;
62523;SDS011;53689;56.878;60.672;2024-02-26T12:01:35;29.40;;;17.05;;
62523;SDS011;53689;56.878;60.672;2024-02-26T12:04:06;32.78;;;18.08;;
62523;SDS011;53689;56.878;60.672;2024-02-26T12:06:44;28.25;;;17.17;;
62523;SDS011;53689;56.878;60.672;2024-02-26T12:12:04;27.63;;;17.60;;
62523;SDS011;53689;56.878;60.672;2024-02-26T12:14:34;25.73;;;17.65;;
62523;SDS011;53689;56.878;60.672;2024-02-26T12:17:01;26.13;;;16.60;;
62523;SDS011;53689;56.878;60.672;2024-02-26T12:19:32;28.35;;;17.50;;
62523;SDS011;53689;56.878;60.672;2024-02-26T12:22:02;26.27;;;16.48;;
62523;SDS011;53689;56.878;60.672;2024-02-26T12:24:30;28.83;;;17.55;;
62523;SDS011;53689;56.878;60.672;2024-02-26T12:26:58;25.88;;;16.75;;
62523;SDS011;53689;56.878;60.672;2024-02-26T12:29:27;26.30;;;16.52;;
62523;SDS011;53689;56.878;60.672;2024-02-26T12:31:54;27.63;;;16.63;;
62523;SDS011;53689;56.878;60.672;2024-02-26T12:34:22;27.83;;;16.00;;
62523;SDS011;53689;56.878;60.672;2024-02-26T12:36:52;26.33;;;17.08;;
62523;SDS011;53689;56.878;60.672;2024-02-26T12:39:21;24.98;;;16.13;;
62523;SDS011;53689;56.878;60.672;2024-02-26T12:41:49;25.38;;;15.52;;
62523;SDS011;53689;56.878;60.672;2024-02-26T12:44:16;25.80;;;15.82;;
62523;SDS011;53689;56.878;60.672;2024-02-26T12:46:45;28.80;;;15.82;;
62523;SDS011;53689;56.878;60.672;2024-02-26T12:49:14;23.42;;;14.60;;
62523;SDS011;53689;56.878;60.672;2024-02-26T12:51:43;24.95;;;14.15;;
62523;SDS011;53689;56.878;60.672;2024-02-26T12:54:13;23.13;;;13.93;;
62523;SDS011;53689;56.878;60.672;2024-02-26T12:56:41;21.75;;;12.93;;
62523;SDS011;53689;56.878;60.672;2024-02-26T12:59:09;24.05;;;13.95;;
62523;SDS011;53689;56.878;60.672;2024-02-26T13:01:37;23.75;;;13.68;;
62523;SDS011;53689;56.878;60.672;2024-02-26T13:04:05;24.58;;;13.95;;
62523;SDS011;53689;56.878;60.672;2024-02-26T13:06:34;20.00;;;12.60;;
62523;SDS011;53689;56.878;60.672;2024-02-26T13:09:03;25.25;;;13.90;;
62523;SDS011;53689;56.878;60.672;2024-02-26T13:11:32;25.08;;;13.60;;
62523;SDS011;53689;56.878;60.672;2024-02-26T13:14:00;24.98;;;14.35;;
62523;SDS011;53689;56.878;60.672;2024-02-26T13:16:32;21.33;;;13.07;;
62523;SDS011;53689;56.878;60.672;2024-02-26T13:19:07;22.13;;;13.90;;
62523;SDS011;53689;56.878;60.672;2024-02-26T13:21:36;27.08;;;16.33;;
62523;SDS011;53689;56.878;60.672;2024-02-26T13:24:04;27.98;;;17.35;;
62523;SDS011;53689;56.878;60.672;2024-02-26T13:26:35;25.98;;;16.55;;
62523;SDS011;53689;56.878;60.672;2024-02-26T13:29:03;25.92;;;16.73;;
62523;SDS011;53689;56.878;60.672;2024-02-26T13:31:31;28.77;;;17.90;;
62523;SDS011;53689;56.878;60.672;2024-02-26T13:34:10;31.77;;;21.00;;
62523;SDS011;53689;56.878;60.672;2024-02-26T13:36:39;29.27;;;22.77;;
62523;SDS011;53689;56.878;60.672;2024-02-26T13:39:08;29.00;;;20.20;;
62523;SDS011;53689;56.878;60.672;2024-02-26T13:41:37;35.00;;;21.60;;
62523;SDS011;53689;56.878;60.672;2024-02-26T13:44:05;36.83;;;24.02;;
62523;SDS011;53689;56.878;60.672;2024-02-26T13:46:34;35.92;;;23.90;;
62523;SDS011;53689;56.878;60.672;2024-02-26T13:49:02;37.13;;;26.13;;
62523;SDS011;53689;56.878;60.672;2024-02-26T13:51:30;30.75;;;21.73;;
62523;SDS011;53689;56.878;60.672;2024-02-26T13:53:58;34.95;;;23.75;;
62523;SDS011;53689;56.878;60.672;2024-02-26T13:56:26;34.58;;;22.83;;
62523;SDS011;53689;56.878;60.672;2024-02-26T13:58:56;32.35;;;23.63;;
62523;SDS011;53689;56.878;60.672;2024-02-26T14:01:24;33.15;;;23.23;;
62523;SDS011;53689;56.878;60.672;2024-02-26T14:03:52;37.05;;;23.98;;
62523;SDS011;53689;56.878;60.672;2024-02-26T14:06:19;32.55;;;22.88;;
62523;SDS011;53689;56.878;60.672;2024-02-26T14:08:48;32.22;;;22.75;;
62523;SDS011;53689;56.878;60.672;2024-02-26T14:11:16;36.53;;;23.80;;
62523;SDS011;53689;56.878;60.672;2024-02-26T14:13:44;32.13;;;22.23;;
62523;SDS011;53689;56.878;60.672;2024-02-26T14:16:13;34.25;;;22.92;;
62523;SDS011;53689;56.878;60.672;2024-02-26T14:18:41;30.77;;;21.60;;
62523;SDS011;53689;56.878;60.672;2024-02-26T14:21:09;29.95;;;21.20;;
62523;SDS011;53689;56.878;60.672;2024-02-26T14:23:37;29.33;;;19.83;;
62523;SDS011;53689;56.878;60.672;2024-02-26T14:26:05;31.67;;;22.08;;
62523;SDS011;53689;56.878;60.672;2024-02-26T14:28:33;30.35;;;21.63;;
62523;SDS011;53689;56.878;60.672;2024-02-26T14:31:03;31.80;;;23.10;;
62523;SDS011;53689;56.878;60.672;2024-02-26T14:33:34;29.50;;;20.73;;